createdAt,value
2022-12-11T00:00:18.344Z,98384.19
2022-12-11T00:03:21.204Z,98386.13
2022-12-11T00:06:24.227Z,98383.53
2022-12-11T00:09:27.042Z,98369.63
2022-12-11T00:12:32.771Z,98369.75
2022-12-11T00:15:38.039Z,98360.47
2022-12-11T00:18:40.540Z,98369.91
2022-12-11T00:21:43.828Z,98372.72
2022-12-11T00:24:46.291Z,98339.66
2022-12-11T00:27:49.010Z,98343.34
2022-12-11T00:30:52.114Z,98352.59
2022-12-11T00:33:54.747Z,98338.09
2022-12-11T00:36:59.171Z,98352.91
2022-12-11T00:40:02.168Z,98335.00
2022-12-11T00:43:04.668Z,98317.25
2022-12-11T00:46:07.641Z,98321.25
2022-12-11T00:49:10.131Z,98315.69
2022-12-11T00:52:13.038Z,98314.28
2022-12-11T00:55:15.606Z,98303.66
2022-12-11T00:58:18.600Z,98302.09
2022-12-11T01:01:24.351Z,98292.19
2022-12-11T01:04:27.935Z,98288.78
2022-12-11T01:07:30.923Z,98280.44
2022-12-11T01:10:35.238Z,98262.97
2022-12-11T01:13:38.935Z,98252.63
2022-12-11T01:16:41.611Z,98231.00
2022-12-11T01:19:44.176Z,98254.59
2022-12-11T01:22:47.010Z,98259.84
2022-12-11T01:25:49.839Z,98255.66
2022-12-11T01:28:52.901Z,98255.66
2022-12-11T01:31:55.888Z,98267.06
2022-12-11T01:34:58.667Z,98286.97
2022-12-11T01:38:01.712Z,98286.66
2022-12-11T01:41:04.867Z,98263.75
2022-12-11T01:44:16.366Z,98245.84
2022-12-11T01:47:19.473Z,98261.13
2022-12-11T01:50:22.965Z,98246.28
2022-12-11T01:53:37.166Z,98226.06
2022-12-11T01:56:42.065Z,98207.81
2022-12-11T01:59:46.881Z,98184.84
2022-12-11T02:02:49.560Z,98188.53
2022-12-11T02:05:52.635Z,98179.22
2022-12-11T02:08:55.347Z,98205.94
2022-12-11T02:12:08.081Z,98210.22
2022-12-11T02:15:35.579Z,98208.56
2022-12-11T02:19:21.490Z,98203.72
2022-12-11T02:22:50.334Z,98196.47
2022-12-11T02:26:20.203Z,98187.06
2022-12-11T02:29:29.176Z,98191.22
2022-12-11T02:32:43.175Z,98182.91
2022-12-11T02:35:47.132Z,98182.72
2022-12-11T02:38:52.471Z,98190.75
2022-12-11T02:41:56.627Z,98192.16
2022-12-11T02:45:01.851Z,98188.91
2022-12-11T02:48:08.193Z,98187.97
2022-12-11T02:51:14.306Z,98185.47
2022-12-11T02:54:21.865Z,98186.53
2022-12-11T02:57:43.272Z,98189.44
2022-12-11T03:00:46.916Z,98181.75
2022-12-11T03:03:49.908Z,98195.47
2022-12-11T03:06:56.495Z,98190.03
2022-12-11T03:10:00.125Z,98182.19
2022-12-11T03:13:05.196Z,98172.66
2022-12-11T03:16:34.047Z,98162.63
2022-12-11T03:19:41.591Z,98155.38
2022-12-11T03:22:50.396Z,98141.00
2022-12-11T03:25:59.598Z,98134.69
2022-12-11T03:29:17.101Z,98134.69
2022-12-11T03:32:25.488Z,98122.34
2022-12-11T03:35:49.703Z,98145.31
2022-12-11T03:38:58.431Z,98150.72
2022-12-11T03:42:09.727Z,98152.25
2022-12-11T03:45:14.345Z,98151.97
2022-12-11T03:48:19.203Z,98152.56
2022-12-11T03:51:24.252Z,98160.31
2022-12-11T03:54:27.801Z,98155.38
2022-12-11T03:57:35.275Z,98154.00
2022-12-11T04:00:38.529Z,98159.53
2022-12-11T04:03:41.025Z,98160.31
2022-12-11T04:06:44.013Z,98162.16
2022-12-11T04:09:46.586Z,98141.97
2022-12-11T04:12:49.475Z,98137.91
2022-12-11T04:15:52.225Z,98135.75
2022-12-11T04:19:13.543Z,98112.63
2022-12-11T04:22:36.186Z,98128.38
2022-12-11T04:25:38.887Z,98124.19
2022-12-11T04:28:42.711Z,98121.88
2022-12-11T04:31:46.326Z,98127.41
2022-12-11T04:34:48.782Z,98143.16
2022-12-11T04:37:53.018Z,98128.81
2022-12-11T04:41:10.239Z,98129.25
2022-12-11T04:44:13.196Z,98140.06
2022-12-11T04:47:15.888Z,98139.41
2022-12-11T04:50:18.739Z,98139.53
2022-12-11T04:53:21.711Z,98125.25
2022-12-11T04:56:24.747Z,98134.00
2022-12-11T04:59:27.723Z,98133.53
2022-12-11T05:02:30.815Z,98137.38
2022-12-11T05:05:33.274Z,98146.75
2022-12-11T05:08:37.790Z,98156.16
2022-12-11T05:11:40.594Z,98158.19
2022-12-11T05:14:43.430Z,98170.22
2022-12-11T05:17:46.067Z,98174.34
2022-12-11T05:20:57.295Z,98164.84
2022-12-11T05:24:00.145Z,98169.91
2022-12-11T05:27:03.015Z,98171.59
2022-12-11T05:30:06.265Z,98183.94
2022-12-11T05:33:09.238Z,98186.25
2022-12-11T05:36:28.832Z,98178.69
2022-12-11T05:39:31.919Z,98183.84
2022-12-11T05:42:34.795Z,98194.81
2022-12-11T05:45:37.832Z,98194.91
2022-12-11T05:48:41.391Z,98199.97
2022-12-11T05:51:44.373Z,98213.06
2022-12-11T05:54:50.451Z,98210.56
2022-12-11T05:57:53.452Z,98221.03
2022-12-11T06:00:56.176Z,98220.75
2022-12-11T06:04:00.077Z,98231.91
2022-12-11T06:07:02.548Z,98239.28
2022-12-11T06:10:05.778Z,98245.19
2022-12-11T06:13:08.585Z,98256.75
2022-12-11T06:16:11.692Z,98261.88
2022-12-11T06:19:16.873Z,98262.00
2022-12-11T06:22:19.939Z,98270.34
2022-12-11T06:25:22.616Z,98271.50
2022-12-11T06:28:25.291Z,98280.63
2022-12-11T06:31:28.034Z,98291.09
2022-12-11T06:34:30.995Z,98284.88
2022-12-11T06:37:38.125Z,98285.25
2022-12-11T06:40:41.939Z,98294.38
2022-12-11T06:43:44.856Z,98290.50
2022-12-11T06:46:47.759Z,98293.88
2022-12-11T06:49:50.566Z,98303.50
2022-12-11T06:52:53.215Z,98315.63
2022-12-11T06:55:55.875Z,98325.03
2022-12-11T06:59:02.824Z,98339.66
2022-12-11T07:02:14.714Z,98362.78
2022-12-11T07:05:17.659Z,98357.13
2022-12-11T07:08:20.358Z,98361.38
2022-12-11T07:11:23.943Z,98381.09
2022-12-11T07:14:26.800Z,98381.38
2022-12-11T07:17:30.308Z,98391.66
2022-12-11T07:20:38.089Z,98396.53
2022-12-11T07:23:41.853Z,98404.66
2022-12-11T07:26:44.684Z,98408.84
2022-12-11T07:29:47.567Z,98419.50
2022-12-11T07:32:50.103Z,98430.19
2022-12-11T07:35:53.256Z,98425.44
2022-12-11T07:38:56.098Z,98436.69
2022-12-11T07:41:59.181Z,98440.50
2022-12-11T07:45:02.174Z,98453.19
2022-12-11T07:48:05.576Z,98463.66
2022-12-11T07:51:27.652Z,98480.44
2022-12-11T07:54:30.443Z,98494.75
2022-12-11T07:57:33.081Z,98495.31
2022-12-11T08:00:36.068Z,98504.16
2022-12-11T08:03:38.637Z,98507.28
2022-12-11T08:06:42.663Z,98513.28
2022-12-11T08:09:45.204Z,98519.69
2022-12-11T08:12:48.045Z,98513.88
2022-12-11T08:15:51.382Z,98521.94
2022-12-11T08:18:54.068Z,98524.09
2022-12-11T08:21:56.739Z,98528.66
2022-12-11T08:24:59.757Z,98538.00
2022-12-11T08:28:04.426Z,98562.16
2022-12-11T08:31:09.824Z,98558.00
2022-12-11T08:34:14.232Z,98549.63
2022-12-11T08:37:17.210Z,98545.88
2022-12-11T08:40:20.377Z,98548.81
2022-12-11T08:43:23.195Z,98562.66
2022-12-11T08:46:28.037Z,98586.94
2022-12-11T08:49:34.378Z,98587.06
2022-12-11T08:52:37.230Z,98598.94
2022-12-11T08:55:39.838Z,98605.44
2022-12-11T08:58:42.967Z,98619.47
2022-12-11T09:01:46.133Z,98627.50
2022-12-11T09:04:48.740Z,98615.09
2022-12-11T09:07:51.697Z,98616.06
2022-12-11T09:10:54.701Z,98627.16
2022-12-11T09:14:02.122Z,98619.50
2022-12-11T09:17:08.872Z,98636.69
2022-12-11T09:20:11.826Z,98632.34
2022-12-11T09:23:14.571Z,98624.19
2022-12-11T09:26:20.442Z,98634.97
2022-12-11T09:29:23.599Z,98648.59
2022-12-11T09:32:26.699Z,98651.03
2022-12-11T09:35:29.184Z,98650.78
2022-12-11T09:38:33.643Z,98655.19
2022-12-11T09:41:55.792Z,98658.56
2022-12-11T09:45:03.128Z,98674.03
2022-12-11T09:48:07.849Z,98683.56
2022-12-11T09:51:19.768Z,98681.13
2022-12-11T09:54:22.371Z,98687.72
2022-12-11T09:58:02.254Z,98689.69
2022-12-11T10:01:31.578Z,98685.09
2022-12-11T10:04:52.729Z,98687.94
2022-12-11T10:08:23.653Z,98697.00
2022-12-11T10:11:41.474Z,98699.00
2022-12-11T10:15:21.354Z,98704.66
2022-12-11T10:18:26.378Z,98712.63
2022-12-11T10:21:37.994Z,98717.38
2022-12-11T10:28:16.764Z,98724.00
2022-12-11T10:31:22.153Z,98722.66
2022-12-11T10:34:36.490Z,98731.50
2022-12-11T10:37:40.325Z,98738.41
2022-12-11T10:40:50.530Z,98744.75
2022-12-11T10:43:54.016Z,98742.41
2022-12-11T10:47:07.301Z,98750.84
2022-12-11T10:50:24.093Z,98758.81
2022-12-11T10:53:29.331Z,98754.84
2022-12-11T10:56:33.934Z,98758.66
2022-12-11T10:59:48.124Z,98763.41
2022-12-11T11:02:50.983Z,98769.06
2022-12-11T11:06:22.446Z,98781.59
2022-12-11T11:09:30.786Z,98775.09
2022-12-11T11:12:39.775Z,98774.31
2022-12-11T11:15:42.737Z,98764.38
2022-12-11T11:18:54.608Z,98761.75
2022-12-11T11:22:00.963Z,98758.25
2022-12-11T11:25:05.216Z,98767.69
2022-12-11T11:28:38.255Z,98778.69
2022-12-11T11:31:42.419Z,98790.03
2022-12-11T11:34:45.207Z,98781.19
2022-12-11T11:38:09.943Z,98785.16
2022-12-11T11:41:15.690Z,98796.75
2022-12-11T11:44:41.191Z,98794.88
2022-12-11T11:47:57.425Z,98807.84
2022-12-11T11:51:12.922Z,98809.13
2022-12-11T11:54:28.419Z,98806.13
2022-12-11T11:57:47.847Z,98804.34
2022-12-11T12:00:54.198Z,98806.69
2022-12-11T12:03:57.615Z,98818.03
2022-12-11T12:07:24.283Z,98822.44
2022-12-11T12:10:38.556Z,98836.19
2022-12-11T12:13:50.160Z,98845.44
2022-12-11T12:17:14.432Z,98839.88
2022-12-11T12:20:43.436Z,98834.03
2022-12-11T12:24:18.008Z,98833.34
2022-12-11T12:27:51.971Z,98847.94
2022-12-11T12:31:00.736Z,98843.47
2022-12-11T12:34:25.081Z,98838.63
2022-12-11T12:37:27.733Z,98838.44
2022-12-11T12:40:48.016Z,98832.97
2022-12-11T12:44:02.431Z,98837.66
2022-12-11T12:47:16.906Z,98832.16
2022-12-11T12:50:25.849Z,98838.50
2022-12-11T12:53:33.688Z,98858.78
2022-12-11T12:56:37.671Z,98869.31
2022-12-11T12:59:40.267Z,98870.66
2022-12-11T13:02:51.509Z,98867.25
2022-12-11T13:06:04.136Z,98875.22
2022-12-11T13:09:15.166Z,98881.75
2022-12-11T13:12:33.171Z,98895.28
2022-12-11T13:15:43.063Z,98905.81
2022-12-11T13:18:48.333Z,98897.94
2022-12-11T13:22:15.042Z,98912.50
2022-12-11T13:25:25.698Z,98920.81
2022-12-11T13:28:33.575Z,98929.56
2022-12-11T13:31:38.386Z,98919.44
2022-12-11T13:34:44.656Z,98913.72
2022-12-11T13:37:51.162Z,98916.78
2022-12-11T13:40:55.729Z,98921.78
2022-12-11T13:43:58.989Z,98930.28
2022-12-11T13:47:03.899Z,98929.78
2022-12-11T13:50:23.551Z,98919.38
2022-12-11T13:53:26.524Z,98925.84
2022-12-11T13:56:29.776Z,98927.06
2022-12-11T13:59:35.856Z,98930.53
2022-12-11T14:02:42.851Z,98921.47
2022-12-11T14:05:45.822Z,98927.00
2022-12-11T14:08:51.875Z,98930.41
2022-12-11T14:11:57.335Z,98937.56
2022-12-11T14:15:02.421Z,98947.00
2022-12-11T14:18:05.758Z,98951.63
2022-12-11T14:21:16.834Z,98960.19
2022-12-11T14:24:19.495Z,98963.38
2022-12-11T14:27:22.934Z,98966.59
2022-12-11T14:30:31.675Z,98967.28
2022-12-11T14:33:40.794Z,98981.47
2022-12-11T14:36:46.346Z,98993.31
2022-12-11T14:40:03.554Z,99002.13
2022-12-11T14:43:21.196Z,98990.41
2022-12-11T14:46:38.400Z,98988.38
2022-12-11T14:49:54.007Z,98980.13
2022-12-11T14:53:07.898Z,98972.47
2022-12-11T14:56:17.867Z,98977.88
2022-12-11T14:59:30.108Z,98987.94
2022-12-11T15:02:37.156Z,99001.06
2022-12-11T15:05:53.822Z,99005.47
2022-12-11T15:08:56.670Z,99003.97
2022-12-11T15:12:14.792Z,99012.81
2022-12-11T15:15:18.458Z,99020.69
2022-12-11T15:18:28.380Z,99016.84
2022-12-11T15:21:38.206Z,99026.50
2022-12-11T15:24:43.377Z,99021.34
2022-12-11T15:27:49.772Z,99028.25
2022-12-11T15:30:59.440Z,99035.34
2022-12-11T15:34:02.705Z,99032.94
2022-12-11T15:37:18.008Z,99035.69
2022-12-11T15:40:21.794Z,99040.31
2022-12-11T15:43:25.186Z,99049.34
2022-12-11T15:46:27.927Z,99049.75
2022-12-11T15:49:30.700Z,99051.69
2022-12-11T15:52:34.655Z,99053.41
2022-12-11T15:55:39.419Z,99057.94
2022-12-11T15:58:44.670Z,99066.31
2022-12-11T16:01:47.764Z,99070.56
2022-12-11T16:04:50.787Z,99069.00
2022-12-11T16:07:54.844Z,99068.72
2022-12-11T16:10:58.155Z,99073.28
2022-12-11T16:14:04.511Z,99075.41
2022-12-11T16:17:09.598Z,99078.88
2022-12-11T16:20:14.073Z,99082.38
2022-12-11T16:23:17.574Z,99079.75
2022-12-11T16:26:20.637Z,99081.41
2022-12-11T16:29:23.479Z,99078.81
2022-12-11T16:32:26.740Z,99079.47
2022-12-11T16:35:29.940Z,99074.69
2022-12-11T16:38:32.953Z,99082.38
2022-12-11T16:41:36.575Z,99075.47
2022-12-11T16:44:43.827Z,99079.84
2022-12-11T16:47:47.428Z,99079.78
2022-12-11T16:50:53.870Z,99078.75
2022-12-11T16:53:56.459Z,99072.72
2022-12-11T16:56:59.588Z,99074.09
2022-12-11T17:00:02.169Z,99080.09
2022-12-11T17:03:05.258Z,99076.06
2022-12-11T17:06:10.193Z,99082.94
2022-12-11T17:09:13.080Z,99088.28
2022-12-11T17:12:15.979Z,99079.59
2022-12-11T17:15:18.655Z,99090.53
2022-12-11T17:18:21.780Z,99085.63
2022-12-11T17:21:24.832Z,99085.28
2022-12-11T17:24:27.521Z,99083.56
2022-12-11T17:27:30.890Z,99097.44
2022-12-11T17:30:33.680Z,99095.78
2022-12-11T17:33:36.715Z,99099.75
2022-12-11T17:36:39.441Z,99088.44
2022-12-11T17:39:42.444Z,99095.88
2022-12-11T17:42:47.619Z,99098.03
2022-12-11T17:45:52.702Z,99100.06
2022-12-11T17:48:56.439Z,99104.94
2022-12-11T17:51:59.396Z,99099.84
2022-12-11T17:55:03.172Z,99101.13
2022-12-11T17:58:06.223Z,99107.25
2022-12-11T18:01:11.010Z,99110.00
2022-12-11T18:04:15.419Z,99109.56
2022-12-11T18:07:19.235Z,99102.13
2022-12-11T18:10:23.283Z,99106.38
2022-12-11T18:13:26.459Z,99099.81
2022-12-11T18:16:33.987Z,99106.06
2022-12-11T18:19:41.415Z,99097.06
2022-12-11T18:22:47.304Z,99091.19
2022-12-11T18:25:50.495Z,99094.97
2022-12-11T18:28:53.973Z,99098.94
2022-12-11T18:31:56.831Z,99088.53
2022-12-11T18:34:59.851Z,99088.34
2022-12-11T18:38:02.730Z,99090.47
2022-12-11T18:41:07.871Z,99089.91
2022-12-11T18:44:10.846Z,99097.06
2022-12-11T18:47:13.675Z,99106.78
2022-12-11T18:50:16.699Z,99106.09
2022-12-11T18:53:20.103Z,99112.91
2022-12-11T18:56:23.428Z,99114.94
2022-12-11T18:59:27.593Z,99121.53
2022-12-11T19:02:30.358Z,99129.69
2022-12-11T19:05:34.075Z,99129.75
2022-12-11T19:08:38.107Z,99137.88
2022-12-11T19:11:41.851Z,99132.88
2022-12-11T19:14:44.779Z,99142.50
2022-12-11T19:17:47.664Z,99137.88
2022-12-11T19:20:57.662Z,99143.16
2022-12-11T19:24:08.389Z,99146.63
2022-12-11T19:27:13.615Z,99153.50
2022-12-11T19:30:17.273Z,99157.19
2022-12-11T19:33:21.976Z,99158.25
2022-12-11T19:36:26.831Z,99156.41
2022-12-11T19:39:29.350Z,99160.34
2022-12-11T19:42:32.520Z,99160.47
2022-12-11T19:45:35.791Z,99161.06
2022-12-11T19:48:41.511Z,99155.28
2022-12-11T19:51:44.973Z,99158.31
2022-12-11T19:54:47.816Z,99152.28
2022-12-11T19:57:50.775Z,99157.16
2022-12-11T20:00:54.304Z,99155.78
2022-12-11T20:04:00.092Z,99152.44
2022-12-11T20:07:03.270Z,99152.72
2022-12-11T20:10:07.225Z,99156.09
2022-12-11T20:13:10.192Z,99159.69
2022-12-11T20:16:14.417Z,99155.31
2022-12-11T20:19:17.411Z,99160.97
2022-12-11T20:22:20.099Z,99155.03
2022-12-11T20:25:24.257Z,99158.69
2022-12-11T20:28:26.879Z,99168.69
2022-12-11T20:31:29.980Z,99163.97
2022-12-11T20:34:32.819Z,99163.16
2022-12-11T20:37:36.175Z,99167.38
2022-12-11T20:40:46.105Z,99167.00
2022-12-11T20:43:53.404Z,99173.50
2022-12-11T20:46:56.136Z,99167.88
2022-12-11T20:49:58.931Z,99173.25
2022-12-11T20:53:01.737Z,99174.06
2022-12-11T20:56:17.414Z,99180.06
2022-12-11T20:59:20.322Z,99180.22
2022-12-11T21:02:23.384Z,99177.09
2022-12-11T21:05:26.168Z,99179.63
2022-12-11T21:08:29.301Z,99184.06
2022-12-11T21:11:32.327Z,99185.94
2022-12-11T21:14:35.138Z,99177.69
2022-12-11T21:17:38.679Z,99181.00
2022-12-11T21:20:41.663Z,99176.50
2022-12-11T21:23:45.082Z,99178.47
2022-12-11T21:26:48.831Z,99177.31
2022-12-11T21:29:51.712Z,99184.53
2022-12-11T21:32:54.491Z,99187.53
2022-12-11T21:35:59.122Z,99190.69
2022-12-11T21:39:02.639Z,99201.19
2022-12-11T21:42:05.223Z,99193.78
2022-12-11T21:45:59.373Z,99189.44
2022-12-11T21:48:33.689Z,99191.63
2022-12-11T21:51:42.525Z,99187.47
2022-12-11T21:54:49.267Z,99195.38
2022-12-11T21:57:54.570Z,99191.72
2022-12-11T22:00:57.738Z,99208.78
2022-12-11T22:04:00.787Z,99200.09
2022-12-11T22:07:03.984Z,99203.25
2022-12-11T22:10:07.670Z,99209.47
2022-12-11T22:13:10.332Z,99206.41
2022-12-11T22:16:13.157Z,99213.53
2022-12-11T22:19:16.270Z,99210.72
2022-12-11T22:22:19.731Z,99207.63
2022-12-11T22:25:22.421Z,99216.53
2022-12-11T22:28:25.318Z,99225.19
2022-12-11T22:31:28.262Z,99221.81
2022-12-11T22:34:31.048Z,99228.41
2022-12-11T22:37:33.562Z,99218.41
2022-12-11T22:40:41.970Z,99225.25
2022-12-11T22:43:44.505Z,99220.28
2022-12-11T22:46:50.265Z,99222.91
2022-12-11T22:49:53.329Z,99228.66
2022-12-11T22:52:55.978Z,99236.78
2022-12-11T22:55:58.647Z,99231.03
2022-12-11T22:59:01.366Z,99232.13
2022-12-11T23:02:04.426Z,99241.00
2022-12-11T23:05:07.986Z,99234.97
2022-12-11T23:08:10.528Z,99242.31
2022-12-11T23:11:24.275Z,99237.31
2022-12-11T23:14:27.353Z,99244.13
2022-12-11T23:17:30.174Z,99243.38
2022-12-11T23:20:36.673Z,99249.13
2022-12-11T23:23:39.592Z,99242.84
2022-12-11T23:26:42.584Z,99253.53
2022-12-11T23:29:46.089Z,99258.56
2022-12-11T23:32:48.900Z,99251.22
2022-12-11T23:35:51.934Z,99245.22
2022-12-11T23:38:55.947Z,99240.75
2022-12-11T23:41:58.823Z,99247.81
2022-12-11T23:45:01.500Z,99248.34
2022-12-11T23:48:04.785Z,99246.00
2022-12-11T23:51:07.889Z,99246.03
2022-12-11T23:54:10.617Z,99238.69
2022-12-11T23:57:13.227Z,99245.25
